createdAt,value
2023-11-03T00:00:09.251Z,0.10
2023-11-03T00:02:36.522Z,0.20
2023-11-03T00:05:06.380Z,0.13
2023-11-03T00:07:33.651Z,0.13
2023-11-03T00:10:01.285Z,0.20
2023-11-03T00:12:27.809Z,0.10
2023-11-03T00:14:54.197Z,0.10
2023-11-03T00:17:20.618Z,0.10
2023-11-03T00:19:47.815Z,0.38
2023-11-03T00:22:14.383Z,0.10
2023-11-03T00:24:41.875Z,0.00
2023-11-03T00:27:08.432Z,0.38
2023-11-03T00:29:34.866Z,0.17
2023-11-03T00:32:01.265Z,0.30
2023-11-03T00:34:27.562Z,0.15
2023-11-03T00:36:54.054Z,0.17
2023-11-03T00:39:21.059Z,0.20
2023-11-03T00:41:49.097Z,0.10
2023-11-03T00:44:16.682Z,0.10
2023-11-03T00:46:43.371Z,0.10
2023-11-03T00:49:11.018Z,0.15
2023-11-03T00:51:37.845Z,0.00
2023-11-03T00:54:07.080Z,0.10
2023-11-03T00:56:36.510Z,0.10
2023-11-03T00:59:06.577Z,0.00
2023-11-03T01:01:33.010Z,0.00
2023-11-03T01:03:59.590Z,0.10
2023-11-03T01:06:26.057Z,0.10
2023-11-03T01:08:52.818Z,0.10
2023-11-03T01:11:20.780Z,0.10
2023-11-03T01:13:47.163Z,0.10
2023-11-03T01:16:14.532Z,0.20
2023-11-03T01:18:41.993Z,0.10
2023-11-03T01:21:16.308Z,0.38
2023-11-03T01:23:43.796Z,0.10
2023-11-03T01:26:11.239Z,0.20
2023-11-03T01:28:37.680Z,0.10
2023-11-03T01:31:11.794Z,0.20
2023-11-03T01:33:42.728Z,0.20
2023-11-03T01:36:09.994Z,0.30
2023-11-03T01:38:36.563Z,0.13
2023-11-03T01:41:04.030Z,0.30
2023-11-03T01:43:31.337Z,0.17
2023-11-03T01:46:00.196Z,0.00
2023-11-03T01:48:29.342Z,0.20
2023-11-03T01:50:56.686Z,0.10
2023-11-03T01:53:23.208Z,0.17
2023-11-03T01:55:49.754Z,0.10
2023-11-03T01:58:16.814Z,0.20
2023-11-03T02:00:43.345Z,0.00
2023-11-03T02:03:09.824Z,0.40
2023-11-03T02:05:36.321Z,0.20
2023-11-03T02:08:02.743Z,0.10
2023-11-03T02:10:29.155Z,0.17
2023-11-03T02:12:55.555Z,0.10
2023-11-03T02:15:23.170Z,0.13
2023-11-03T02:17:49.954Z,0.10
2023-11-03T02:20:16.923Z,0.10
2023-11-03T02:22:43.356Z,0.10
2023-11-03T02:25:10.041Z,0.10
2023-11-03T02:27:36.563Z,0.10
2023-11-03T02:30:04.375Z,0.30
2023-11-03T02:32:30.789Z,0.13
2023-11-03T02:34:57.285Z,0.10
2023-11-03T02:37:23.932Z,0.10
2023-11-03T02:39:50.388Z,0.32
2023-11-03T02:42:17.895Z,0.30
2023-11-03T02:44:44.302Z,0.13
2023-11-03T02:47:10.699Z,0.35
2023-11-03T02:49:37.105Z,0.22
2023-11-03T02:52:04.186Z,0.28
2023-11-03T02:54:30.771Z,0.30
2023-11-03T02:56:57.172Z,0.32
2023-11-03T02:59:24.002Z,0.10
2023-11-03T03:01:50.868Z,0.40
2023-11-03T03:04:17.766Z,0.32
2023-11-03T03:06:46.768Z,0.30
2023-11-03T03:09:14.089Z,0.10
2023-11-03T03:11:41.405Z,0.10
2023-11-03T03:14:08.242Z,0.10
2023-11-03T03:16:34.632Z,0.17
2023-11-03T03:19:01.183Z,0.30
2023-11-03T03:21:27.803Z,0.20
2023-11-03T03:23:54.252Z,0.32
2023-11-03T03:26:20.680Z,0.30
2023-11-03T03:28:47.084Z,0.25
2023-11-03T03:31:13.588Z,0.20
2023-11-03T03:33:40.199Z,0.20
2023-11-03T03:36:08.585Z,0.20
2023-11-03T03:38:34.976Z,0.38
2023-11-03T03:41:01.360Z,0.10
2023-11-03T03:43:27.766Z,0.00
2023-11-03T03:45:54.139Z,0.10
2023-11-03T03:48:20.457Z,0.10
2023-11-03T03:50:46.898Z,0.10
2023-11-03T03:53:13.406Z,0.28
2023-11-03T03:55:39.776Z,0.20
2023-11-03T03:58:06.599Z,0.20
2023-11-03T04:00:33.037Z,0.10
2023-11-03T04:02:59.444Z,0.13
2023-11-03T04:05:26.350Z,0.05
2023-11-03T04:07:52.812Z,0.20
2023-11-03T04:10:19.260Z,0.43
2023-11-03T04:12:45.756Z,0.40
2023-11-03T04:15:12.215Z,0.00
2023-11-03T04:17:38.691Z,0.10
2023-11-03T04:20:05.583Z,0.20
2023-11-03T04:22:32.513Z,0.15
2023-11-03T04:24:58.940Z,0.22
2023-11-03T04:27:25.374Z,0.43
2023-11-03T04:29:51.745Z,0.20
2023-11-03T04:32:18.240Z,0.30
2023-11-03T04:34:44.754Z,0.20
2023-11-03T04:37:11.550Z,0.22
2023-11-03T04:39:37.957Z,0.20
2023-11-03T04:42:04.600Z,0.10
2023-11-03T04:44:31.918Z,0.20
2023-11-03T04:46:58.400Z,0.30
2023-11-03T04:49:24.797Z,0.17
2023-11-03T04:51:51.309Z,0.20
2023-11-03T04:54:17.942Z,0.30
2023-11-03T04:56:45.616Z,0.20
2023-11-03T04:59:12.241Z,0.08
2023-11-03T05:01:38.632Z,0.10
2023-11-03T05:04:05.146Z,0.08
2023-11-03T05:06:31.958Z,0.20
2023-11-03T05:08:58.333Z,0.20
2023-11-03T05:11:24.808Z,0.22
2023-11-03T05:13:51.206Z,0.20
2023-11-03T05:16:17.617Z,0.10
2023-11-03T05:18:45.101Z,0.10
2023-11-03T05:21:13.677Z,0.15
2023-11-03T05:23:40.229Z,0.43
2023-11-03T05:26:07.164Z,0.20
2023-11-03T05:28:33.492Z,0.20
2023-11-03T05:30:59.883Z,0.25
2023-11-03T05:33:27.032Z,0.20
2023-11-03T05:35:53.448Z,0.10
2023-11-03T05:38:19.870Z,0.10
2023-11-03T05:40:46.303Z,0.10
2023-11-03T05:43:12.721Z,0.17
2023-11-03T05:45:39.147Z,0.30
2023-11-03T05:48:05.758Z,0.10
2023-11-03T05:50:32.221Z,0.05
2023-11-03T05:52:59.601Z,0.10
2023-11-03T05:55:27.381Z,0.40
2023-11-03T05:57:53.837Z,0.00
2023-11-03T06:00:22.508Z,0.22
2023-11-03T06:02:49.812Z,0.10
2023-11-03T06:05:16.281Z,0.30
2023-11-03T06:07:42.900Z,0.30
2023-11-03T06:10:09.598Z,0.22
2023-11-03T06:12:35.989Z,0.10
2023-11-03T06:15:02.384Z,0.30
2023-11-03T06:17:29.405Z,0.45
2023-11-03T06:19:55.914Z,0.25
2023-11-03T06:22:22.339Z,0.40
2023-11-03T06:24:48.757Z,0.13
2023-11-03T06:27:15.358Z,1.23
2023-11-03T06:29:41.900Z,0.40
2023-11-03T06:32:09.265Z,0.10
2023-11-03T06:34:35.850Z,0.30
2023-11-03T06:37:02.337Z,0.25
2023-11-03T06:39:28.804Z,0.17
2023-11-03T06:41:55.219Z,0.20
2023-11-03T06:44:22.654Z,0.20
2023-11-03T06:46:49.104Z,0.10
2023-11-03T06:49:15.722Z,0.30
2023-11-03T06:51:45.392Z,0.10
2023-11-03T06:54:12.280Z,0.10
2023-11-03T06:56:38.725Z,0.10
2023-11-03T06:59:07.053Z,0.20
2023-11-03T07:01:35.476Z,0.10
2023-11-03T07:04:02.232Z,0.10
2023-11-03T07:06:29.180Z,0.40
2023-11-03T07:08:56.876Z,0.17
2023-11-03T07:11:25.264Z,0.20
2023-11-03T07:13:52.908Z,0.00
2023-11-03T07:16:19.961Z,0.20
2023-11-03T07:18:48.923Z,0.10
2023-11-03T07:21:18.923Z,0.10
2023-11-03T07:23:45.447Z,0.30
2023-11-03T07:26:15.342Z,0.17
2023-11-03T07:28:45.572Z,0.28
2023-11-03T07:33:41.192Z,0.13
2023-11-03T07:36:08.630Z,0.20
2023-11-03T07:38:35.025Z,0.20
2023-11-03T07:41:02.930Z,0.45
2023-11-03T07:43:29.593Z,0.30
2023-11-03T07:45:57.320Z,0.22
2023-11-03T07:48:24.694Z,0.38
2023-11-03T07:50:52.146Z,0.40
2023-11-03T07:53:18.508Z,0.17
2023-11-03T07:55:44.909Z,0.50
2023-11-03T07:58:11.322Z,0.47
2023-11-03T08:00:37.770Z,0.30
2023-11-03T08:03:08.576Z,0.25
2023-11-03T08:05:35.726Z,0.10
2023-11-03T08:08:05.779Z,0.28
2023-11-03T08:10:32.207Z,0.20
2023-11-03T08:12:58.729Z,0.10
2023-11-03T08:15:25.201Z,0.30
2023-11-03T08:17:51.665Z,0.17
2023-11-03T08:20:18.144Z,0.43
2023-11-03T08:22:45.891Z,0.20
2023-11-03T08:25:13.213Z,0.20
2023-11-03T08:27:40.395Z,0.10
2023-11-03T08:30:09.849Z,0.20
2023-11-03T08:32:39.087Z,0.00
2023-11-03T08:35:06.686Z,0.27
2023-11-03T08:37:33.944Z,0.30
2023-11-03T08:40:05.936Z,0.17
2023-11-03T08:42:33.726Z,0.10
2023-11-03T08:45:00.132Z,0.13
2023-11-03T08:47:26.551Z,0.20
2023-11-03T08:49:52.996Z,0.30
2023-11-03T08:52:19.840Z,0.35
2023-11-03T08:54:46.372Z,0.08
2023-11-03T08:57:14.373Z,0.20
2023-11-03T08:59:40.845Z,0.10
2023-11-03T09:02:07.452Z,0.20
2023-11-03T09:04:34.342Z,0.30
2023-11-03T09:07:01.013Z,0.10
2023-11-03T09:09:28.356Z,0.20
2023-11-03T09:11:54.733Z,0.20
2023-11-03T09:14:21.201Z,0.22
2023-11-03T09:16:47.739Z,0.20
2023-11-03T09:19:14.242Z,0.20
2023-11-03T09:21:40.681Z,0.17
2023-11-03T09:24:07.273Z,0.20
2023-11-03T09:26:34.340Z,0.20
2023-11-03T09:29:01.907Z,0.10
2023-11-03T09:31:29.399Z,0.65
2023-11-03T09:33:56.803Z,0.15
2023-11-03T09:36:23.335Z,0.20
2023-11-03T09:38:49.758Z,0.17
2023-11-03T09:41:16.385Z,0.10
2023-11-03T09:43:43.714Z,0.15
2023-11-03T09:46:11.446Z,0.10
2023-11-03T09:48:39.053Z,0.30
2023-11-03T09:51:07.995Z,0.10
2023-11-03T09:53:36.049Z,0.10
2023-11-03T09:56:03.432Z,0.10
2023-11-03T09:58:32.744Z,0.10
2023-11-03T10:01:01.655Z,0.38
2023-11-03T10:03:28.519Z,0.30
2023-11-03T10:05:55.791Z,0.20
2023-11-03T10:08:22.217Z,0.17
2023-11-03T10:10:48.594Z,0.50
2023-11-03T10:13:19.213Z,0.17
2023-11-03T10:15:45.811Z,0.20
2023-11-03T10:18:12.793Z,0.25
2023-11-03T10:20:39.865Z,0.40
2023-11-03T10:23:06.528Z,0.10
2023-11-03T10:25:33.157Z,0.20
2023-11-03T10:28:05.762Z,0.10
2023-11-03T10:30:32.413Z,0.30
2023-11-03T10:32:58.924Z,0.35
2023-11-03T10:35:25.740Z,0.20
2023-11-03T10:37:54.982Z,0.10
2023-11-03T10:40:22.027Z,0.20
2023-11-03T10:42:50.000Z,0.32
2023-11-03T10:45:19.730Z,0.35
2023-11-03T10:48:05.119Z,0.20
2023-11-03T10:50:37.069Z,0.30
2023-11-03T10:53:21.806Z,0.20
2023-11-03T10:55:55.593Z,0.10
2023-11-03T10:58:22.390Z,0.20
2023-11-03T11:00:51.747Z,0.25
2023-11-03T11:03:30.159Z,0.23
2023-11-03T11:06:21.777Z,0.40
2023-11-03T11:09:06.010Z,0.00
2023-11-03T11:11:38.287Z,0.10
2023-11-03T11:14:21.586Z,0.17
2023-11-03T11:16:48.371Z,0.30
2023-11-03T11:19:18.169Z,0.20
2023-11-03T11:21:50.827Z,0.30
2023-11-03T11:24:23.217Z,0.13
2023-11-03T11:26:52.572Z,0.45
2023-11-03T11:29:28.881Z,0.10
2023-11-03T11:32:03.946Z,0.17
2023-11-03T11:34:31.958Z,0.30
2023-11-03T11:37:30.524Z,0.13
2023-11-03T11:39:57.959Z,0.30
2023-11-03T11:42:29.936Z,0.20
2023-11-03T11:44:56.724Z,0.22
2023-11-03T11:47:26.759Z,0.20
2023-11-03T11:49:56.083Z,0.10
2023-11-03T11:52:27.283Z,0.20
2023-11-03T11:54:59.228Z,0.38
2023-11-03T11:57:27.648Z,0.30
2023-11-03T11:59:55.331Z,0.38
2023-11-03T12:02:22.769Z,0.22
2023-11-03T12:04:52.736Z,0.30
2023-11-03T12:07:27.626Z,0.20
2023-11-03T12:09:55.687Z,0.10
2023-11-03T12:12:22.935Z,0.20
2023-11-03T12:14:49.405Z,0.13
2023-11-03T12:17:16.953Z,0.30
2023-11-03T12:19:44.059Z,0.10
2023-11-03T12:22:20.757Z,0.38
2023-11-03T12:24:49.266Z,0.20
2023-11-03T12:27:17.950Z,0.17
2023-11-03T12:29:45.551Z,0.10
2023-11-03T12:32:12.932Z,0.20
2023-11-03T12:34:41.327Z,0.57
2023-11-03T12:37:08.595Z,0.28
2023-11-03T12:39:51.935Z,0.10
2023-11-03T12:42:19.383Z,0.50
2023-11-03T12:44:57.444Z,0.32
2023-11-03T12:47:36.085Z,0.28
2023-11-03T12:50:19.754Z,0.20
2023-11-03T12:52:48.883Z,0.50
2023-11-03T12:55:20.566Z,0.30
2023-11-03T12:57:47.868Z,0.17
2023-11-03T13:00:16.945Z,0.35
2023-11-03T13:02:47.584Z,0.30
2023-11-03T13:05:15.537Z,0.13
2023-11-03T13:07:42.659Z,0.35
2023-11-03T13:10:10.503Z,0.20
2023-11-03T13:12:38.619Z,0.22
2023-11-03T13:15:07.276Z,0.20
2023-11-03T13:17:34.311Z,0.10
2023-11-03T13:20:00.819Z,0.15
2023-11-03T13:22:29.019Z,0.82
2023-11-03T13:24:55.698Z,0.55
2023-11-03T13:27:22.324Z,0.45
2023-11-03T13:29:48.823Z,0.30
2023-11-03T13:32:15.234Z,0.30
2023-11-03T13:34:41.793Z,0.30
2023-11-03T13:37:10.344Z,0.40
2023-11-03T13:39:37.424Z,0.10
2023-11-03T13:42:04.825Z,0.50
2023-11-03T13:44:32.414Z,0.10
2023-11-03T13:46:59.705Z,0.10
2023-11-03T13:49:33.792Z,0.28
2023-11-03T13:52:02.995Z,0.60
2023-11-03T13:54:29.433Z,0.45
2023-11-03T13:56:55.951Z,0.47
2023-11-03T13:59:22.531Z,0.68
2023-11-03T14:01:49.758Z,0.35
2023-11-03T14:04:16.259Z,0.35
2023-11-03T14:06:43.734Z,0.40
2023-11-03T14:09:12.327Z,0.20
2023-11-03T14:11:39.013Z,0.28
2023-11-03T14:14:05.606Z,0.50
2023-11-03T14:16:32.074Z,0.30
2023-11-03T14:18:58.933Z,0.40
2023-11-03T14:21:28.003Z,0.32
2023-11-03T14:23:57.478Z,0.55
2023-11-03T14:26:24.242Z,0.40
2023-11-03T14:28:52.169Z,0.30
2023-11-03T14:31:18.798Z,0.20
2023-11-03T14:33:46.125Z,0.38
2023-11-03T14:36:14.664Z,0.63
2023-11-03T14:38:43.669Z,0.20
2023-11-03T14:41:11.349Z,0.70
2023-11-03T14:43:40.652Z,1.27
2023-11-03T14:46:07.871Z,0.27
2023-11-03T14:48:34.427Z,0.43
2023-11-03T14:51:01.582Z,0.50
2023-11-03T14:53:31.716Z,0.47
2023-11-03T14:55:59.598Z,0.40
2023-11-03T14:58:27.013Z,0.40
2023-11-03T15:00:54.202Z,0.50
2023-11-03T15:03:20.694Z,0.20
2023-11-03T15:05:50.037Z,0.30
2023-11-03T15:08:16.642Z,0.30
2023-11-03T15:10:43.079Z,0.40
2023-11-03T15:13:09.544Z,0.40
2023-11-03T15:15:38.670Z,0.50
2023-11-03T15:18:06.998Z,0.30
2023-11-03T15:20:33.590Z,0.43
2023-11-03T15:22:59.989Z,0.25
2023-11-03T15:25:26.710Z,0.22
2023-11-03T15:27:53.131Z,0.30
2023-11-03T15:30:22.854Z,0.30
2023-11-03T15:32:49.739Z,0.60
2023-11-03T15:35:16.677Z,0.70
2023-11-03T15:37:44.357Z,0.22
2023-11-03T15:40:18.811Z,0.60
2023-11-03T15:42:45.862Z,0.50
2023-11-03T15:45:14.215Z,0.73
2023-11-03T15:47:40.782Z,0.75
2023-11-03T15:50:13.011Z,0.63
2023-11-03T15:52:40.465Z,0.90
2023-11-03T15:55:10.733Z,0.28
2023-11-03T15:57:37.797Z,0.63
2023-11-03T16:00:05.902Z,0.50
2023-11-03T16:02:32.458Z,0.57
2023-11-03T16:04:59.055Z,0.60
2023-11-03T16:07:25.504Z,0.70
2023-11-03T16:09:51.906Z,0.45
2023-11-03T16:12:18.899Z,0.80
2023-11-03T16:14:46.504Z,0.50
2023-11-03T16:17:16.436Z,0.57
2023-11-03T16:19:43.053Z,0.25
2023-11-03T16:22:09.497Z,0.50
2023-11-03T16:24:35.900Z,0.55
2023-11-03T16:27:02.396Z,1.52
2023-11-03T16:29:29.001Z,0.73
2023-11-03T16:31:55.438Z,0.60
2023-11-03T16:34:21.966Z,0.63
2023-11-03T16:36:48.452Z,0.38
2023-11-03T16:39:15.252Z,0.82
2023-11-03T16:41:41.641Z,0.57
2023-11-03T16:44:10.107Z,0.70
2023-11-03T16:46:36.942Z,0.80
2023-11-03T16:49:04.035Z,1.38
2023-11-03T16:51:30.755Z,0.98
2023-11-03T16:53:57.350Z,1.00
2023-11-03T16:56:23.710Z,1.02
2023-11-03T16:58:50.105Z,1.50
2023-11-03T17:01:18.103Z,1.52
2023-11-03T17:03:44.923Z,0.70
2023-11-03T17:06:12.612Z,0.93
2023-11-03T17:08:39.015Z,1.42
2023-11-03T17:11:05.449Z,1.50
2023-11-03T17:13:32.176Z,1.50
2023-11-03T17:16:00.140Z,1.77
2023-11-03T17:18:27.680Z,1.40
2023-11-03T17:20:54.401Z,0.95
2023-11-03T17:23:20.814Z,1.13
2023-11-03T17:25:47.326Z,0.90
2023-11-03T17:28:14.051Z,0.60
2023-11-03T17:30:40.628Z,0.52
2023-11-03T17:33:08.609Z,0.45
2023-11-03T17:35:35.537Z,0.60
2023-11-03T17:38:01.945Z,0.40
2023-11-03T17:40:30.287Z,0.45
2023-11-03T17:42:59.184Z,0.20
2023-11-03T17:45:27.199Z,0.50
2023-11-03T17:47:53.668Z,0.88
2023-11-03T17:50:21.200Z,0.50
2023-11-03T17:52:48.910Z,0.40
2023-11-03T17:55:15.461Z,0.30
2023-11-03T17:57:45.640Z,0.60
2023-11-03T18:02:43.792Z,0.35
2023-11-03T18:05:13.958Z,0.90
2023-11-03T18:10:08.568Z,0.40
2023-11-03T18:12:41.078Z,0.20
2023-11-03T18:15:10.069Z,0.73
2023-11-03T18:17:37.915Z,0.60
2023-11-03T18:20:13.038Z,0.80
2023-11-03T18:22:40.958Z,1.20
2023-11-03T18:25:08.136Z,0.70
2023-11-03T18:27:34.780Z,0.50
2023-11-03T18:30:01.219Z,0.88
2023-11-03T18:32:29.269Z,0.65
2023-11-03T18:34:55.889Z,1.20
2023-11-03T18:37:24.753Z,0.55
2023-11-03T18:39:51.201Z,0.95
2023-11-03T18:42:18.466Z,0.60
2023-11-03T18:44:45.963Z,0.50
2023-11-03T18:47:12.362Z,0.40
2023-11-03T18:52:09.681Z,0.40
2023-11-03T18:58:15.179Z,0.70
2023-11-03T19:00:24.777Z,0.80
2023-11-03T19:07:06.272Z,1.05
2023-11-03T19:07:57.706Z,0.60
2023-11-03T19:10:24.324Z,0.80
2023-11-03T19:12:51.010Z,0.98
2023-11-03T19:15:19.974Z,0.93
2023-11-03T19:17:47.174Z,0.82
2023-11-03T19:20:13.950Z,0.80
2023-11-03T19:22:40.408Z,0.93
2023-11-03T19:25:07.810Z,0.77
2023-11-03T19:27:34.332Z,0.88
2023-11-03T19:30:00.764Z,1.05
2023-11-03T19:32:27.209Z,0.80
2023-11-03T19:34:53.823Z,0.52
2023-11-03T19:37:20.404Z,0.52
2023-11-03T19:39:47.124Z,2.03
2023-11-03T19:42:15.681Z,1.70
2023-11-03T19:44:42.495Z,1.10
2023-11-03T19:47:08.995Z,0.38
2023-11-03T19:49:35.539Z,0.80
2023-11-03T19:52:02.030Z,0.60
2023-11-03T19:54:28.657Z,0.80
2023-11-03T19:56:55.094Z,0.45
2023-11-03T19:59:23.657Z,0.80
2023-11-03T20:01:50.490Z,0.75
2023-11-03T20:04:17.128Z,0.70
2023-11-03T20:06:43.645Z,0.50
2023-11-03T20:09:10.887Z,0.70
2023-11-03T20:11:37.341Z,1.08
2023-11-03T20:14:03.762Z,0.60
2023-11-03T20:16:31.366Z,0.68
2023-11-03T20:18:57.802Z,0.70
2023-11-03T20:21:24.249Z,0.82
2023-11-03T20:23:50.676Z,0.40
2023-11-03T20:26:22.594Z,0.47
2023-11-03T20:28:50.258Z,0.50
2023-11-03T20:31:16.990Z,0.95
2023-11-03T20:33:45.769Z,0.52
2023-11-03T20:36:12.621Z,0.80
2023-11-03T20:38:39.152Z,0.80
2023-11-03T20:41:08.029Z,0.65
2023-11-03T20:43:34.867Z,0.90
2023-11-03T20:46:02.067Z,0.77
2023-11-03T20:48:32.508Z,0.90
2023-11-03T20:51:02.570Z,0.60
2023-11-03T20:53:29.202Z,0.65
2023-11-03T20:55:55.779Z,0.60
2023-11-03T20:58:22.334Z,0.50
2023-11-03T21:00:49.455Z,0.15
2023-11-03T21:03:16.358Z,0.63
2023-11-03T21:05:43.807Z,0.70
2023-11-03T21:08:11.615Z,0.25
2023-11-03T21:10:39.443Z,0.63
2023-11-03T21:13:07.373Z,0.80
2023-11-03T21:15:34.061Z,0.80
2023-11-03T21:18:00.657Z,0.65
2023-11-03T21:20:27.198Z,0.38
2023-11-03T21:22:53.925Z,0.28
2023-11-03T21:25:20.406Z,0.45
2023-11-03T21:27:46.971Z,0.60
2023-11-03T21:30:13.808Z,0.70
2023-11-03T21:32:40.338Z,0.47
2023-11-03T21:35:10.149Z,0.40
2023-11-03T21:37:36.905Z,0.40
2023-11-03T21:40:03.896Z,0.32
2023-11-03T21:42:31.264Z,0.40
2023-11-03T21:44:58.273Z,0.40
2023-11-03T21:47:26.079Z,0.40
2023-11-03T21:49:52.524Z,0.20
2023-11-03T21:52:19.640Z,0.28
2023-11-03T21:54:46.115Z,0.47
2023-11-03T21:57:14.955Z,0.35
2023-11-03T21:59:41.370Z,0.40
2023-11-03T22:02:08.557Z,0.50
2023-11-03T22:04:35.121Z,0.20
2023-11-03T22:07:01.657Z,0.40
2023-11-03T22:09:28.439Z,0.30
2023-11-03T22:11:54.906Z,0.85
2023-11-03T22:14:21.362Z,1.17
2023-11-03T22:16:47.887Z,0.73
2023-11-03T22:19:14.560Z,0.30
2023-11-03T22:21:41.186Z,0.30
2023-11-03T22:24:08.076Z,0.47
2023-11-03T22:26:39.927Z,0.43
2023-11-03T22:29:11.067Z,0.20
2023-11-03T22:31:47.652Z,0.20
2023-11-03T22:34:16.369Z,0.50
2023-11-03T22:36:43.835Z,0.38
2023-11-03T22:39:10.696Z,0.30
2023-11-03T22:41:37.332Z,0.28
2023-11-03T22:44:06.683Z,0.20
2023-11-03T22:46:33.156Z,0.40
2023-11-03T22:48:59.675Z,0.55
2023-11-03T22:51:26.176Z,0.20
2023-11-03T22:53:54.482Z,0.30
2023-11-03T22:56:23.192Z,0.32
2023-11-03T22:58:50.829Z,0.52
2023-11-03T23:01:17.916Z,0.35
2023-11-03T23:03:45.069Z,0.45
2023-11-03T23:06:13.001Z,0.40
2023-11-03T23:08:39.778Z,0.50
2023-11-03T23:11:10.066Z,0.17
2023-11-03T23:16:04.887Z,0.30
2023-11-03T23:18:32.037Z,0.20
2023-11-03T23:20:58.534Z,0.60
2023-11-03T23:23:25.601Z,0.50
2023-11-03T23:25:52.522Z,0.17
2023-11-03T23:28:19.069Z,0.30
2023-11-03T23:30:45.846Z,0.28
2023-11-03T23:33:12.713Z,0.30
2023-11-03T23:35:39.291Z,0.20
2023-11-03T23:38:05.797Z,0.43
2023-11-03T23:40:32.810Z,0.40
2023-11-03T23:42:59.208Z,0.40
2023-11-03T23:45:25.624Z,0.40
2023-11-03T23:47:52.108Z,0.32
2023-11-03T23:50:18.628Z,0.20
2023-11-03T23:52:45.040Z,0.20
2023-11-03T23:55:12.134Z,0.20
2023-11-03T23:57:38.614Z,0.28
